createdAt,value
2022-10-05T00:01:57.026Z,10.00
2022-10-05T00:07:04.557Z,10.00
2022-10-05T00:12:21.503Z,9.80
2022-10-05T00:17:29.677Z,9.90
2022-10-05T00:22:34.842Z,9.70
2022-10-05T00:27:39.763Z,9.60
2022-10-05T00:32:43.029Z,9.50
2022-10-05T00:37:46.473Z,9.40
2022-10-05T00:42:54.726Z,9.70
2022-10-05T00:48:07.687Z,9.70
2022-10-05T00:53:22.503Z,9.30
2022-10-05T00:58:32.104Z,9.20
2022-10-05T01:03:51.165Z,9.10
2022-10-05T01:08:58.763Z,9.20
2022-10-05T01:14:06.771Z,9.80
2022-10-05T01:19:15.868Z,9.30
2022-10-05T01:24:35.036Z,8.90
2022-10-05T01:29:42.606Z,8.70
2022-10-05T01:34:48.434Z,8.70
2022-10-05T01:39:57.545Z,8.40
2022-10-05T01:45:05.602Z,8.70
2022-10-05T01:50:17.352Z,8.90
2022-10-05T01:55:23.434Z,9.00
2022-10-05T02:00:28.675Z,9.10
2022-10-05T02:05:37.184Z,9.00
2022-10-05T02:10:43.008Z,8.90
2022-10-05T02:15:50.579Z,8.80
2022-10-05T02:20:54.317Z,8.60
2022-10-05T02:25:57.958Z,8.60
2022-10-05T02:31:07.217Z,9.00
2022-10-05T02:36:16.336Z,8.40
2022-10-05T02:41:26.538Z,8.30
2022-10-05T02:46:34.911Z,8.50
2022-10-05T02:51:42.014Z,8.40
2022-10-05T02:56:49.131Z,8.90
2022-10-05T03:01:56.782Z,8.40
2022-10-05T03:07:06.055Z,8.20
2022-10-05T03:12:17.289Z,8.20
2022-10-05T03:17:25.450Z,8.30
2022-10-05T03:22:35.339Z,8.60
2022-10-05T03:27:41.205Z,8.90
2022-10-05T03:32:54.780Z,8.90
2022-10-05T03:38:05.840Z,8.80
2022-10-05T03:43:20.545Z,8.60
2022-10-05T03:48:29.173Z,8.70
2022-10-05T03:53:41.299Z,8.80
2022-10-05T03:58:47.662Z,8.70
2022-10-05T04:03:53.439Z,8.90
2022-10-05T04:09:00.366Z,9.10
2022-10-05T04:14:07.603Z,8.90
2022-10-05T04:19:16.331Z,8.60
2022-10-05T04:24:26.157Z,8.60
2022-10-05T04:29:32.416Z,8.90
2022-10-05T04:34:47.039Z,9.10
2022-10-05T04:39:54.926Z,9.20
2022-10-05T04:45:09.523Z,9.20
2022-10-05T04:50:25.230Z,9.30
2022-10-05T04:55:48.001Z,9.30
2022-10-05T05:00:56.162Z,9.50
2022-10-05T05:06:16.903Z,9.80
2022-10-05T05:11:28.490Z,10.20
2022-10-05T05:16:35.336Z,9.90
2022-10-05T05:21:47.736Z,9.70
2022-10-05T05:26:59.153Z,9.80
2022-10-05T05:32:11.425Z,9.80
2022-10-05T05:37:19.122Z,9.90
2022-10-05T05:42:30.539Z,10.00
2022-10-05T05:47:37.884Z,9.80
2022-10-05T05:52:46.397Z,10.00
2022-10-05T05:57:51.887Z,9.90
2022-10-05T06:02:57.377Z,10.30
2022-10-05T06:08:07.274Z,10.20
2022-10-05T06:13:17.788Z,10.30
2022-10-05T06:18:21.708Z,10.80
2022-10-05T06:23:31.464Z,10.60
2022-10-05T06:28:34.964Z,11.20
2022-10-05T06:33:47.089Z,10.80
2022-10-05T06:39:17.733Z,10.90
2022-10-05T06:44:23.802Z,11.00
2022-10-05T06:50:00.401Z,10.90
2022-10-05T06:55:24.986Z,11.00
2022-10-05T07:00:30.734Z,11.30
2022-10-05T07:06:08.229Z,11.30
2022-10-05T07:11:22.661Z,11.20
2022-10-05T07:16:32.258Z,11.30
2022-10-05T07:21:39.567Z,11.50
2022-10-05T07:26:47.975Z,12.00
2022-10-05T07:32:01.094Z,11.90
2022-10-05T07:37:23.548Z,12.10
2022-10-05T07:42:48.765Z,12.30
2022-10-05T07:47:56.732Z,12.40
2022-10-05T07:53:04.446Z,12.40
2022-10-05T07:58:13.406Z,12.80
2022-10-05T08:03:22.290Z,12.10
2022-10-05T08:08:28.806Z,12.60
2022-10-05T08:13:36.059Z,12.90
2022-10-05T08:18:45.431Z,13.00
2022-10-05T08:23:53.265Z,12.70
2022-10-05T08:29:08.201Z,12.70
2022-10-05T08:34:23.379Z,12.70
2022-10-05T08:39:31.451Z,13.20
2022-10-05T08:45:05.072Z,13.70
2022-10-05T08:50:38.141Z,14.60
2022-10-05T08:55:45.424Z,14.50
2022-10-05T09:00:56.321Z,14.90
2022-10-05T09:06:22.216Z,15.00
2022-10-05T09:11:27.122Z,15.40
2022-10-05T09:16:51.358Z,15.70
2022-10-05T09:21:59.013Z,16.20
2022-10-05T09:27:05.420Z,15.60
2022-10-05T09:32:23.726Z,15.40
2022-10-05T09:37:55.462Z,16.00
2022-10-05T09:43:27.002Z,15.40
2022-10-05T09:48:50.411Z,15.50
2022-10-05T09:54:43.704Z,15.30
2022-10-05T10:00:09.176Z,15.10
2022-10-05T10:05:25.961Z,15.00
2022-10-05T10:11:08.116Z,15.70
2022-10-05T10:16:18.984Z,15.50
2022-10-05T10:21:46.968Z,15.90
2022-10-05T10:27:05.147Z,16.20
2022-10-05T10:32:21.292Z,16.20
2022-10-05T10:37:39.178Z,16.10
2022-10-05T10:42:44.062Z,15.80
2022-10-05T10:48:00.364Z,15.50
2022-10-05T10:53:14.370Z,15.80
2022-10-05T10:58:50.652Z,15.80
2022-10-05T11:04:13.630Z,15.80
2022-10-05T11:09:41.662Z,15.90
2022-10-05T11:14:54.370Z,15.70
2022-10-05T11:20:05.557Z,15.60
2022-10-05T11:25:44.559Z,15.90
2022-10-05T11:31:18.864Z,16.00
2022-10-05T11:36:48.377Z,16.40
2022-10-05T11:42:20.016Z,16.80
2022-10-05T11:47:24.630Z,17.10
2022-10-05T11:52:31.786Z,18.00
2022-10-05T11:57:38.989Z,18.10
2022-10-05T12:03:17.245Z,17.90
2022-10-05T12:08:26.433Z,19.00
2022-10-05T12:13:35.876Z,19.20
2022-10-05T12:18:56.383Z,18.90
2022-10-05T12:24:01.860Z,20.00
2022-10-05T12:29:10.204Z,19.90
2022-10-05T12:34:22.006Z,19.50
2022-10-05T12:39:29.278Z,20.60
2022-10-05T12:44:52.385Z,20.50
2022-10-05T12:50:08.201Z,20.70
2022-10-05T12:55:14.010Z,21.40
2022-10-05T13:00:22.921Z,22.00
2022-10-05T13:05:29.772Z,22.40
2022-10-05T13:10:36.322Z,21.90
2022-10-05T13:15:43.621Z,22.70
2022-10-05T13:20:53.694Z,22.60
2022-10-05T13:25:59.945Z,23.30
2022-10-05T13:31:07.803Z,24.00
2022-10-05T13:36:15.847Z,23.40
2022-10-05T13:41:23.670Z,22.40
2022-10-05T13:46:32.196Z,22.90
2022-10-05T13:51:40.126Z,22.70
2022-10-05T13:56:48.609Z,22.90
2022-10-05T14:01:57.919Z,23.10
2022-10-05T14:07:04.845Z,23.90
2022-10-05T14:12:15.630Z,24.30
2022-10-05T14:17:37.945Z,24.20
2022-10-05T14:22:42.950Z,23.80
2022-10-05T14:28:10.069Z,23.80
2022-10-05T14:33:18.125Z,24.00
2022-10-05T14:38:22.758Z,23.90
2022-10-05T14:43:26.512Z,23.90
2022-10-05T14:48:44.927Z,24.40
2022-10-05T14:53:57.788Z,24.70
2022-10-05T14:59:17.593Z,24.40
2022-10-05T15:04:35.065Z,24.00
2022-10-05T15:09:45.601Z,24.40
2022-10-05T15:14:49.008Z,24.40
2022-10-05T15:19:56.981Z,24.50
2022-10-05T15:25:04.946Z,24.10
2022-10-05T15:30:11.227Z,24.20
2022-10-05T15:35:36.125Z,23.80
2022-10-05T15:40:42.821Z,24.00
2022-10-05T15:45:54.178Z,23.70
2022-10-05T15:51:02.390Z,23.90
2022-10-05T15:56:08.504Z,24.00
2022-10-05T16:01:12.830Z,23.30
2022-10-05T16:06:42.727Z,23.10
2022-10-05T16:12:01.976Z,23.10
2022-10-05T16:17:18.893Z,23.00
2022-10-05T16:22:26.826Z,23.00
2022-10-05T16:27:34.708Z,22.90
2022-10-05T16:32:39.253Z,22.50
2022-10-05T16:37:47.709Z,22.20
2022-10-05T16:42:55.139Z,21.80
2022-10-05T16:48:05.281Z,21.20
2022-10-05T16:53:15.901Z,20.30
2022-10-05T16:58:25.132Z,20.10
2022-10-05T17:03:35.457Z,19.50
2022-10-05T17:08:51.121Z,19.40
2022-10-05T17:14:04.927Z,19.50
2022-10-05T17:19:33.643Z,19.30
2022-10-05T17:24:47.774Z,19.20
2022-10-05T17:29:52.595Z,19.00
2022-10-05T17:35:18.871Z,18.90
2022-10-05T17:40:59.968Z,18.70
2022-10-05T17:46:05.773Z,18.60
2022-10-05T17:52:05.927Z,18.60
2022-10-05T17:57:21.153Z,18.30
2022-10-05T18:02:27.012Z,18.30
2022-10-05T18:07:33.652Z,18.30
2022-10-05T18:12:51.624Z,18.10
2022-10-05T18:17:57.356Z,17.70
2022-10-05T18:23:29.673Z,17.60
2022-10-05T18:28:40.697Z,17.50
2022-10-05T18:33:59.658Z,17.30
2022-10-05T18:39:04.899Z,17.30
2022-10-05T18:44:27.298Z,17.40
2022-10-05T18:49:54.450Z,17.50
2022-10-05T18:55:02.377Z,17.30
2022-10-05T19:00:09.222Z,17.30
2022-10-05T19:05:42.958Z,17.20
2022-10-05T19:10:43.844Z,17.20
2022-10-05T19:15:55.277Z,17.20
2022-10-05T19:21:02.379Z,17.10
2022-10-05T19:26:12.001Z,16.90
2022-10-05T19:31:23.388Z,17.10
2022-10-05T19:36:34.661Z,17.30
2022-10-05T19:41:52.288Z,17.30
2022-10-05T19:47:02.884Z,17.00
2022-10-05T19:52:12.706Z,16.70
2022-10-05T19:57:18.342Z,16.90
2022-10-05T20:02:23.989Z,16.70
2022-10-05T20:07:28.080Z,16.70
2022-10-05T20:12:50.664Z,16.80
2022-10-05T20:18:15.614Z,16.80
2022-10-05T20:23:25.352Z,16.70
2022-10-05T20:28:31.984Z,16.40
2022-10-05T20:33:37.259Z,16.30
2022-10-05T20:38:41.310Z,16.20
2022-10-05T20:43:44.577Z,16.40
2022-10-05T20:49:00.407Z,16.40
2022-10-05T20:54:03.845Z,16.30
2022-10-05T20:59:07.038Z,16.30
2022-10-05T21:04:14.149Z,16.20
2022-10-05T21:09:21.698Z,16.10
2022-10-05T21:14:28.298Z,16.00
2022-10-05T21:19:38.310Z,16.20
2022-10-05T21:24:41.968Z,16.10
2022-10-05T21:29:45.549Z,16.10
2022-10-05T21:34:50.564Z,16.00
2022-10-05T21:39:54.745Z,16.20
2022-10-05T21:44:58.218Z,15.70
2022-10-05T21:50:03.730Z,15.50
2022-10-05T21:55:10.571Z,15.60
2022-10-05T22:00:16.389Z,15.20
2022-10-05T22:05:21.279Z,15.30
2022-10-05T22:10:25.034Z,15.30
2022-10-05T22:15:31.413Z,15.30
2022-10-05T22:20:40.693Z,15.20
2022-10-05T22:25:43.810Z,15.10
2022-10-05T22:30:46.972Z,14.90
2022-10-05T22:35:51.788Z,14.80
2022-10-05T22:40:58.079Z,14.60
2022-10-05T22:46:03.098Z,14.80
2022-10-05T22:51:09.623Z,14.80
2022-10-05T22:56:13.994Z,14.90
2022-10-05T23:01:21.559Z,14.60
2022-10-05T23:06:26.682Z,14.70
2022-10-05T23:11:30.176Z,14.70
2022-10-05T23:16:34.318Z,14.60
2022-10-05T23:21:39.839Z,14.40
2022-10-05T23:26:43.596Z,14.50
2022-10-05T23:31:46.713Z,14.50
2022-10-05T23:36:51.207Z,14.70
2022-10-05T23:41:56.175Z,15.00
2022-10-05T23:47:28.069Z,15.00
2022-10-05T23:52:35.705Z,15.00
2022-10-05T23:57:40.600Z,15.00
